Menu

GTA Racing Analytics

Use real tested lap times, tested top speeds, race tiers, and ranks to find the strongest GTA Online race picks. You can also layer in reviewed HSW and custom-upgrade states to see how much faster an upgraded build really gets.

Tested Performance focuses on vehicles with reviewed lap-time and top-speed results. Switch to Handling View for broader coverage across the wider vehicle roster.

Visible Points

768

Base vehicles with reviewed tested speed and lap-time coverage.

View
Ranking

Tested Performance Explorer

X axis is tested top speed. Higher position on the chart means a quicker lap time.

Base = circle
QUICK BUT NOT FASTESTFAST + QUICKDEVELOPING PACESTRAIGHT-LINE SPECIALISTSTESTED TOP SPEEDTESTED LAP TIME

Tested performance/HSW data by Broughy1322.

Tested Performance Rankings

Current filtered set, sorted by quickest tested lap time.

768 rows

Tested performance rankings for the current filters
PreviewVehicleStateClassTop SpeedLap TimeRace TierClass RankOverall RankPriceActions
Mammoth F-160 RaijuBasePlanes232.5 mph0:30.822-#1#1$6,855,000View Stats
Buckingham Alpha-Z1BasePlanes201.5 mph0:33.567-#2#2$2,121,350View Stats
Buckingham Howard NX-25BasePlanes203.8 mph0:33.868-#3#3$1,296,750View Stats
Buckingham PyroBasePlanes222.8 mph0:34.034-#4#4$4,455,500View Stats
Mammoth HydraBasePlanes209.3 mph0:34.135-#5#5$3,990,000View Stats
Western RogueBasePlanes219.5 mph0:35.201-#6#6$1,596,000View Stats
V-65 MolotokBasePlanes207.8 mph0:36.367-#7#7$4,788,000View Stats
P-45 NokotaBasePlanes201.0 mph0:37.068-#8#8$2,653,350View Stats
JoBuilt P-996 LAZERBasePlanes195.0 mph0:37.645-#9#9$6,500,000View Stats
Western BesraBasePlanes189.3 mph0:38.334-#10#10$1,150,000View Stats
Western SeabreezeBasePlanes191.8 mph0:38.568-#11#11$1,130,500View Stats
Mammoth AvengerBasePlanes178.5 mph0:39.421-#12#12$3,450,000View Stats
Buckingham VestraBasePlanes163.8 mph0:40.307-#13#13$950,000View Stats
LF-22 StarlingBasePlanes187.8 mph0:44.468-#14#14$3,657,500View Stats
Mammoth MogulBasePlanes155.8 mph0:45.301-#15#15$3,125,500View Stats
B-11 StrikeforceBasePlanes163.8 mph0:46.034-#16#16$3,800,000View Stats
Buckingham NimbusBasePlanes165.0 mph0:47.045-#17#17$1,900,000View Stats
Buckingham Luxor DeluxeBasePlanes159.5 mph0:47.315-#18#18$10,000View Stats
Buckingham LuxorBasePlanes159.0 mph0:48.314-#19#19$1,625,000View Stats
Mammoth Streamer216BasePlanes143.0 mph0:48.319-#20#20$2,238,000View Stats
Western MallardBasePlanes140.3 mph0:48.649-#21#21$250,000View Stats
Mammoth TulaBasePlanes150.0 mph0:49.302-#22#22$4,100,000View Stats
Buckingham ShamalBasePlanes159.0 mph0:49.417-#23#23$1,150,000View Stats
Buckingham MiljetBasePlanes161.3 mph0:49.616-#24#24$1,700,000View Stats
Western Cuban 800BasePlanes142.0 mph0:49.850-#25#25$240,000View Stats
Pegassi OppressorBaseMotorcycles140.0 mph0:51.953-#1#26$2,750,000View Stats
Buckingham ConadaBaseHelicopters158.8 mph0:51.961-#1#27$2,450,000View Stats
JoBuilt VelumBasePlanes139.8 mph0:53.050-#26#29$450,000View Stats
JoBuilt Velum 5-SeaterBasePlanes139.8 mph0:53.050-#26#29$1,323,350View Stats
Pegassi Oppressor Mk IIBaseMotorcycles127.8 mph0:53.387-#2#30$8,000,000View Stats
VolatolBasePlanes165.5 mph0:53.501-#27#31$3,724,000View Stats
Buckingham Weaponized ConadaBaseHelicopters151.0 mph0:53.762-#2#32$3,385,000View Stats
RO-86 AlkonostBasePlanes167.5 mph0:53.981-#28#33$4,350,000View Stats
AkulaBaseHelicopters157.3 mph0:54.368-#3#34$4,500,000View Stats
Buckingham Swift DeluxeBaseHelicopters157.8 mph0:54.484-#4#35$5,150,000View Stats
Western DusterBasePlanes144.0 mph0:54.522-#29#36$275,000View Stats
Benefactor BR8BaseOpen Wheel121.0 mph0:54.555S#1#1$3,400,000View Stats
Buckingham SwiftBaseHelicopters156.5 mph0:54.953-#5#37$1,500,000View Stats
SparrowBaseHelicopters168.8 mph0:54.997-#6#38$1,815,000View Stats
Nagasaki HavokBaseHelicopters148.5 mph0:55.234-#7#39$2,300,900View Stats
Mammoth DodoBasePlanes134.3 mph0:55.335-#30#40$500,000View Stats
Western PowersurgeBaseMotorcycles130.0 mph0:55.371-#2#41$1,605,000View Stats
Buckingham VolatusBaseHelicopters161.3 mph0:55.388-#8#42$2,295,000View Stats
Buckingham SuperVolitoBaseHelicopters148.8 mph0:55.489-#9#43$2,113,000View Stats
Buckingham SuperVolito CarbonBaseHelicopters148.8 mph0:55.489-#9#43$3,330,000View Stats
Sea SparrowBaseHelicopters153.8 mph0:55.535-#10#44$1,815,000View Stats
Grotti VigilanteBaseSuper146.8 mph0:55.872-#1#5$3,750,000View Stats
FH-1 HunterBaseHelicopters154.3 mph0:55.902-#11#45$4,123,000View Stats
Progen PR4BaseOpen Wheel116.5 mph0:56.356A#2#7$3,515,000View Stats
Declasse DR1BaseOpen Wheel118.5 mph0:56.473A#3#8$2,997,000View Stats
Ocelot R88BaseOpen Wheel117.5 mph0:56.540A#4#9$3,115,000View Stats
TitanBasePlanes133.3 mph0:56.602-#31#46$2,000,000View Stats
Pegassi ToreadorBaseSports Classics135.3 mph0:56.624-#1#10$4,250,000View Stats
JoBuilt MammatusBasePlanes132.3 mph0:56.721-#32#47$300,000View Stats
FroggerBaseHelicopters141.5 mph0:56.757-#12#48-View Stats
Maibatsu FroggerBaseHelicopters141.5 mph0:56.757-#12#48$1,300,000View Stats
Shitzu Hakuchou DragBaseMotorcycles126.5 mph0:57.440-#3#49$976,000View Stats
Nagasaki ShotaroBaseMotorcycles123.8 mph0:57.490-#4#50$2,225,000View Stats
BuzzardBaseHelicopters145.0 mph0:57.523-#13#51-View Stats
Nagasaki Buzzard Attack ChopperBaseHelicopters145.0 mph0:57.523-#13#51$1,750,000View Stats
Progen EmerusBaseSuper126.8 mph0:57.624A#3#12$2,750,000View Stats
Declasse ScramjetBaseSuper130.8 mph0:57.775-#2#13$4,000,000View Stats
Grotti Turismo OmaggioBaseSuper122.5 mph0:57.775A#4#14$2,845,000View Stats
Pegassi Weaponized IgnusBaseSuper125.0 mph0:57.824A#5#15$4,500,000View Stats
Benefactor KriegerBaseSuper128.0 mph0:57.924A#6#16$2,875,000View Stats
Buckingham Police MaverickBaseHelicopters144.0 mph0:58.325-#14#52-View Stats
Overflod PipistrelloBaseSuper117.8 mph0:58.541B#8#18$2,950,000View Stats
Nagasaki ShinobiBaseMotorcycles125.3 mph0:58.592-#5#53$2,480,500View Stats
Pegassi Bati 801BaseMotorcycles135.0 mph0:58.625-#6#54$15,000View Stats
Pegassi Bati 801RRBaseMotorcycles135.0 mph0:58.625-#6#54$15,000View Stats
Benefactor LM87BaseSuper127.5 mph0:58.658B#9#19$2,915,000View Stats
Pegassi IgnusBaseSuper125.0 mph0:58.742B#10#20$2,765,000View Stats
Dewbauchee VagnerBaseSuper126.8 mph0:58.892B#11#21$1,535,000View Stats
Dinka AkumaBaseMotorcycles121.3 mph0:58.892-#7#55$9,000View Stats
Truffade ThraxBaseSuper123.8 mph0:58.893B#12#22$2,325,000View Stats
Annis S80RRBaseSuper123.0 mph0:58.959B#13#23$2,575,000View Stats
Western Apocalypse DeathbikeBaseMotorcycles150.0 mph0:59.017-#3#56$1,269,000View Stats
Western Future Shock DeathbikeBaseMotorcycles150.0 mph0:59.017-#3#56$1,269,000View Stats
Western Nightmare DeathbikeBaseMotorcycles150.0 mph0:59.017-#3#56$1,269,000View Stats
Buckingham MaverickBaseHelicopters140.3 mph0:59.058-#15#57$780,000View Stats
Higgins Helitours MaverickBaseHelicopters140.3 mph0:59.058-#15#57FreeView Stats
Annis RE-7BBaseSuper123.5 mph0:59.076B#14#24$2,475,000View Stats
Coil Rocket VolticBaseSuper124.8 mph0:59.209-#3#25$3,830,400View Stats
Ocelot VirtueBaseSuper119.5 mph0:59.293B#15#27$2,980,000View Stats
Grotti Itali GTOBaseSports128.0 mph0:59.359A#5#28$1,965,000View Stats
Western ReeverBaseMotorcycles163.0 mph0:59.459-#8#58$1,900,000View Stats
Ocelot XA-21BaseSuper122.5 mph0:59.459C#16#29$2,375,000View Stats
Overflod SuzumeBaseSuper126.5 mph0:59.543C#17#30$3,074,500View Stats
Pegassi Torero XOBaseSuper131.5 mph0:59.577C#18#32$2,890,000View Stats
Lampadati TigonBaseSuper125.5 mph0:59.643C#19#33$2,310,000View Stats
Coil Cyclone IIBaseSuper119.3 mph0:59.660C#20#34$2,250,000View Stats
Ubermacht NiobeBaseSports127.3 mph0:59.726A#7#35$1,880,000View Stats
Overflod AutarchBaseSuper126.0 mph0:59.776C#21#36$1,955,000View Stats
Principe Deveste EightBaseSuper131.3 mph1:00.010D#22#38$1,795,000View Stats
Annihilator StealthBaseHelicopters149.0 mph1:00.238-#16#59$3,870,000View Stats
Pegassi TempestaBaseSuper121.5 mph1:00.243D#23#39$1,329,000View Stats
Dinka Double-TBaseMotorcycles118.0 mph1:00.261-#9#60$12,000View Stats
Shitzu DefilerBaseMotorcycles117.0 mph1:00.326-#10#61$412,000View Stats
Grotti VisioneBaseSuper124.8 mph1:00.411D#24#41$2,250,000View Stats
Enus Paragon SBaseSports127.5 mph1:00.443B#8#42$2,010,000View Stats
Emperor ETR1BaseSuper121.3 mph1:00.593D#26#44$1,995,000View Stats
Grotti FuriaBaseSuper121.8 mph1:00.594E#27#45$2,740,000View Stats
Bravado Banshee GTSBaseSports138.0 mph1:00.621B#9#46$1,989,500View Stats
Ocelot PariahBaseSports136.0 mph1:00.644B#10#48$1,420,000View Stats
Grotti X80 ProtoBaseSuper128.3 mph1:00.677E#28#50$2,700,000View Stats
Pegassi TezeractBaseSuper125.8 mph1:00.678E#29#51$2,825,000View Stats
Shitzu HakuchouBaseMotorcycles134.0 mph1:00.760-#11#62$82,000View Stats
Progen T20BaseSuper122.5 mph1:00.778E#30#52$2,200,000View Stats
Pegassi OsirisBaseSuper122.0 mph1:00.794E#31#53$1,950,000View Stats
Penaud La CoureuseBaseSports114.5 mph1:00.811B#12#54$1,990,000View Stats
Pegassi ZorrussoBaseSuper125.0 mph1:00.815E#32#55$1,925,000View Stats
Truffade Nero CustomBaseSuper127.0 mph1:00.827E#33#56-View Stats
Grotti Itali RSXBaseSports134.5 mph1:00.844B#13#58$3,465,000View Stats
Overflod TyrantBaseSuper126.5 mph1:00.860E#34#59$2,515,000View Stats
Bollokan EnvisageBaseSports122.0 mph1:00.860B#14#60$2,472,000View Stats
Invetero Coquette D5BaseSports130.8 mph1:00.861B#15#61$1,730,000View Stats
Pegassi ZentornoBaseSuper122.3 mph1:00.878E#35#62$725,000View Stats
Nagasaki Carbon RSBaseMotorcycles124.3 mph1:00.960-#12#63$40,000View Stats
Vysser NeoBaseSports125.3 mph1:00.977C#16#63$1,875,000View Stats
Pegassi VortexBaseMotorcycles115.8 mph1:01.028-#13#64$356,000View Stats
Overflod ImorgonBaseSports106.8 mph1:01.060C#17#64$2,165,000View Stats
Progen TyrusBaseSuper123.3 mph1:01.210E#36#65$2,550,000View Stats
Progen Itali GTBBaseSuper125.3 mph1:01.311F#37#66$1,189,000View Stats
Coil CycloneBaseSuper116.0 mph1:01.312F#38#67$1,890,000View Stats
Overflod ZenoBaseSuper128.0 mph1:01.328F#39#68$2,820,000View Stats
Enus Paragon RBaseSports123.0 mph1:01.361C#18#69$905,000View Stats
Ocelot JugularBaseSports125.0 mph1:01.371C#19#70$1,225,000View Stats
Truffade NeroBaseSuper126.3 mph1:01.394F#40#71$1,440,000View Stats
Dewbauchee Rapid GT XBaseSports132.3 mph1:01.395C#20#72$2,705,500View Stats
Enus Paragon R (Armored)BaseSports122.5 mph1:01.426-#1#73-View Stats
Vapid FMJBaseSuper125.5 mph1:01.428F#41#74$1,750,000View Stats
Grotti Turismo RBaseSuper122.5 mph1:01.578F#42#75$500,000View Stats
Overflod Entity XFBaseSuper122.3 mph1:01.678F#43#76$795,000View Stats
Pfister Comet SRBaseSports122.0 mph1:01.778C#21#77$1,145,000View Stats
Buckingham ValkyrieBaseHelicopters145.0 mph1:01.796-#17#65$3,790,500View Stats
Valkyrie MOD.0BaseHelicopters145.0 mph1:01.796-#17#65-View Stats
Lampadati CorsitaBaseSports131.3 mph1:01.812C#22#78$1,795,000View Stats
Ocelot PenetratorBaseSuper123.3 mph1:01.862G#44#79$880,000View Stats
Weeny Issi SportBaseSports112.5 mph1:01.961C#23#80$897,000View Stats
Ubermacht Sentinel GTSBaseSports132.3 mph1:02.045C#24#81$2,172,000View Stats
Declasse DraugurBaseOff-Road111.8 mph1:02.095A#3#84$1,870,000View Stats
Annis Apocalypse ZR380BaseSports142.0 mph1:02.112-#2#86$2,138,640View Stats
Annis Future Shock ZR380BaseSports142.0 mph1:02.112-#2#86$2,138,640View Stats
Annis Nightmare ZR380BaseSports142.0 mph1:02.112-#2#86$2,138,640View Stats
Pegassi ReaperBaseSuper122.0 mph1:02.112G#45#86$1,595,000View Stats
Progen Itali GTB CustomBaseSuper127.5 mph1:02.145G#46#87-View Stats
Karin Sultan ClassicBaseSports117.0 mph1:02.145D#25#88$1,718,000View Stats
Annis Elegy RH8BaseSports118.8 mph1:02.279D#26#89$95,000View Stats
Nagasaki BF400BaseMotorcycles135.8 mph1:02.296-#14#67$95,000View Stats
Dinka LSCM Jester RRBaseSports118.3 mph1:02.379D#27#90$2,290,000View Stats
Grotti CheetahBaseSuper120.8 mph1:02.396G#47#91$650,000View Stats
Dinka Jester (Racecar)BaseSports120.3 mph1:02.396D#28#92$350,000View Stats
Pegassi FCR 1000 CustomBaseMotorcycles112.5 mph1:02.396-#15#68-View Stats
Pegassi RuffianBaseMotorcycles127.0 mph1:02.461-#16#69$10,000View Stats
Pegassi InfernusBaseSuper118.0 mph1:02.462G#48#93$440,000View Stats
Western Police BikeBaseEmergency156.8 mph1:02.497-#1#94$4,960,000View Stats
Obey 10F WidebodyBaseSports128.0 mph1:02.546D#29#96$575,000View Stats
Western CliffhangerBaseMotorcycles124.8 mph1:02.595-#17#70$225,000View Stats
Western GargoyleBaseMotorcycles125.0 mph1:02.628-#18#71$120,000View Stats
Karin Sultan RS ClassicBaseSports117.5 mph1:02.747E#30#97$1,789,000View Stats
Emperor VectreBaseSports116.0 mph1:02.762E#31#98$1,785,000View Stats
Invetero Coquette D10 PursuitBaseEmergency133.8 mph1:02.796-#2#99$5,620,000View Stats
Grotti Stinger TTBaseSports132.0 mph1:02.829D#32#100$2,380,000View Stats
Vapid Dominator GTBaseMuscle123.0 mph1:02.880S#4#101$2,195,000View Stats
Principe Diabolus CustomBaseMotorcycles115.3 mph1:02.896-#19#72-View Stats
Benefactor FeltzerBaseSports120.3 mph1:02.913E#33#102$145,000View Stats
Pfister 811BaseSuper130.8 mph1:02.946H#49#103$1,135,000View Stats
Karin Calico GTFBaseSports121.0 mph1:02.963E#34#104$1,995,000View Stats
Dinka JesterBaseSports119.5 mph1:02.980E#35#105$240,000View Stats
Pfister GrowlerBaseSports122.0 mph1:02.996E#36#106$1,627,000View Stats
Obey 9F CabrioBaseSports121.3 mph1:03.002E#37#107$130,000View Stats
Ubermacht SC1BaseSuper121.8 mph1:03.030H#50#108$1,603,000View Stats
Obey 9FBaseSports121.3 mph1:03.056E#38#109$120,000View Stats
Obey 8F DrafterBaseSports117.8 mph1:03.096E#39#110$718,000View Stats
Progen GP1BaseSuper123.8 mph1:03.097H#51#111$1,260,000View Stats
Bravado Buffalo STXBaseMuscle126.0 mph1:03.147S#5#112$2,150,000View Stats
Obey 10FBaseSports126.0 mph1:03.180E#40#113$1,675,000View Stats
Overflod Entity MTBaseSuper131.3 mph1:03.196H#52#114$2,355,000View Stats
Pfister NeonBaseSports114.0 mph1:03.196E#41#115$1,500,000View Stats
Annis Elegy Retro CustomBaseSports115.5 mph1:03.212E#42#116-View Stats
Dewbauchee Massacro (Racecar)BaseSports122.8 mph1:03.213E#43#117$385,000View Stats
Vapid Uranus LozSpeedBaseSports Classics118.3 mph1:03.230A#3#118$1,140,000View Stats
Pegassi FCR 1000BaseMotorcycles112.0 mph1:03.230-#20#73$135,000View Stats
LCC SanctusBaseMotorcycles112.0 mph1:03.329-#21#74$1,995,000View Stats
Dewbauchee MassacroBaseSports122.8 mph1:03.364E#44#119$275,000View Stats
Grotti LSCM Cheetah ClassicBaseSports Classics119.0 mph1:03.413A#4#120$1,952,500View Stats
Benefactor Schlagen GTBaseSports125.5 mph1:03.462E#45#121$1,300,000View Stats
Western NightbladeBaseMotorcycles114.3 mph1:03.496-#22#75$100,000View Stats
Maxwell VagrantBaseOff-Road120.8 mph1:03.596A#4#123$2,214,000View Stats
Vapid Dominator FX InterceptorBaseEmergency124.0 mph1:03.664-#3#124$4,950,000View Stats
Maibatsu SanchezBaseMotorcycles119.5 mph1:03.665-#23#76$8,000View Stats
Maibatsu Sanchez (livery)BaseMotorcycles119.5 mph1:03.665-#23#76$7,000View Stats
Coil RaidenBaseSports113.3 mph1:03.697F#46#125$1,375,000View Stats
Principe LectroBaseMotorcycles109.3 mph1:03.729-#24#77$997,500View Stats
Invetero Coquette D10BaseSports130.5 mph1:03.797E#47#128$1,510,000View Stats
Maibatsu Penumbra FFBaseSports113.0 mph1:03.798F#48#129$1,380,000View Stats
Pfister CometBaseSports119.8 mph1:03.846F#49#130$100,000View Stats
Grotti Turismo ClassicBaseSports Classics121.0 mph1:03.847A#5#131$705,000View Stats
Annis 300RBaseSports120.0 mph1:03.847F#50#132$2,075,000View Stats
Canis CastigatorBaseSUVs126.0 mph1:03.864S#3#133$1,650,000View Stats
Pegassi VaccaBaseSuper120.5 mph1:03.864I#53#134$240,000View Stats
Vapid Dominator FXBaseMuscle122.0 mph1:03.880S#6#135$1,550,000View Stats
Dewbauchee Seven-70BaseSports124.0 mph1:03.881F#51#136$695,000View Stats
Bravado Banshee 900RBaseSuper130.3 mph1:03.930I#54#138$565,000View Stats
Canis Terminus PatrolBaseEmergency119.5 mph1:03.964-#4#139$5,125,000View Stats
Karin Sultan RSBaseSuper118.3 mph1:04.030I#55#140-View Stats
Dinka Jester RRBaseSports126.0 mph1:04.031F#52#141$1,970,000View Stats
Grotti Bestia GTSBaseSports119.0 mph1:04.035F#53#142$610,000View Stats
Annis EurosBaseSports117.3 mph1:04.040F#54#143$1,800,000View Stats
Dewbauchee Specter CustomBaseSports121.0 mph1:04.047F#55#144-View Stats
JetBasePlanes142.0 mph1:04.056-#34#78-View Stats
Overflod Entity XXRBaseSuper127.5 mph1:04.081I#56#145$2,305,000View Stats
Dewbauchee SpecterBaseSports121.0 mph1:04.082F#56#147$599,000View Stats
Grotti Cheetah ClassicBaseSports Classics120.0 mph1:04.082A#6#147$865,000View Stats
Vapid Flash GTBaseSports116.0 mph1:04.097F#57#148$1,675,000View Stats
Albany V-STRBaseSports125.3 mph1:04.114F#58#149$1,285,000View Stats
Ubermacht RevolterBaseSports116.8 mph1:04.115F#59#150$1,610,000View Stats
Karin Everon RSBaseSUVs125.8 mph1:04.147S#5#151$1,665,000View Stats
Lampadati KomodaBaseSports123.5 mph1:04.165F#60#152$1,700,000View Stats
Canis TerminusBaseOff-Road119.0 mph1:04.197A#5#153$1,877,500View Stats
Fathom FR36BaseCoupes121.5 mph1:04.214S#2#154$1,610,000View Stats
Gallivanter Baller ST-DBaseSUVs118.3 mph1:04.214S#6#155$1,715,000View Stats
Ubermacht CypherBaseSports113.5 mph1:04.231G#61#156$1,550,000View Stats
Ubermacht Sentinel Classic WidebodyBaseSports127.3 mph1:04.248F#62#157$700,000View Stats
Ocelot ArdentBaseSports Classics118.8 mph1:04.265A#7#158$1,150,000View Stats
Principe DiabolusBaseMotorcycles114.3 mph1:04.297-#25#79$169,000View Stats
Pfister Comet S2 CabrioBaseSports129.3 mph1:04.298F#63#159$1,797,000View Stats
Truffade AdderBaseSuper126.3 mph1:04.365I#57#160$1,000,000View Stats
Benefactor SuranoBaseSports121.0 mph1:04.380G#64#161$110,000View Stats
Declasse Apocalypse ImpalerBaseMuscle129.0 mph1:04.398-#1#162$1,209,500View Stats
Declasse Future Shock ImpalerBaseMuscle129.0 mph1:04.398-#1#162$1,209,500View Stats
Declasse Nightmare ImpalerBaseMuscle129.0 mph1:04.398-#1#162$1,209,500View Stats
Obey Omnis e-GTBaseSports111.5 mph1:04.431G#65#163$1,795,000View Stats
Benefactor SM722BaseSports123.8 mph1:04.481G#66#164$2,115,000View Stats
SavageBaseHelicopters144.5 mph1:04.497-#18#80$2,593,500View Stats
Dewbauchee ChampionBaseSuper125.0 mph1:04.532I#58#165$3,750,000View Stats
Dinka Chavos V6BaseSedans115.5 mph1:04.564S#1#166$1,420,000View Stats
Lampadati CinquemilaBaseSedans120.5 mph1:04.581S#2#167$1,740,000View Stats
Bravado VerliererBaseSports122.3 mph1:04.582G#67#168$695,000View Stats
Benefactor Schafter V12BaseSports126.0 mph1:04.598G#68#169$116,000View Stats
Principe NemesisBaseMotorcycles111.3 mph1:04.598-#26#81$12,000View Stats
Pfister Comet Retro CustomBaseSports121.5 mph1:04.615G#69#170-View Stats
Pfister Comet S2BaseSports122.5 mph1:04.715G#70#171$1,878,000View Stats
Karin PrevionBaseCoupes115.3 mph1:04.731A#3#172$1,490,000View Stats
Ubermacht Sentinel ClassicBaseSports117.3 mph1:04.732G#71#173$650,000View Stats
Obey Tailgater SBaseSedans116.0 mph1:04.732S#3#174$1,495,000View Stats
Ubermacht RhinehartBaseSedans123.0 mph1:04.748S#4#175$1,598,000View Stats
Benefactor Schafter V12 (Armored)BaseSedans125.0 mph1:04.749S#5#176$325,000View Stats
Pegassi TorosBaseSUVs128.3 mph1:04.765S#7#177$498,000View Stats
Bravado Gauntlet InterceptorBaseEmergency122.0 mph1:04.814-#5#178$5,420,000View Stats
Canis KamachoBaseOff-Road116.5 mph1:04.864B#6#179$345,000View Stats
Vapid Apocalypse DominatorBaseMuscle134.0 mph1:04.882-#2#180$1,132,000View Stats
Vapid Future Shock DominatorBaseMuscle134.0 mph1:04.882-#2#180$1,132,000View Stats
Vapid Nightmare DominatorBaseMuscle134.0 mph1:04.882-#2#180$1,132,000View Stats
Nagasaki Street BlazerBaseOff-Road100.0 mph1:04.914B#7#181$81,000View Stats
Ocelot LocustBaseSports119.5 mph1:04.981H#72#182$1,625,000View Stats
Karin SultanBaseSports116.3 mph1:04.982H#73#183$12,000View Stats
Annis MinimusBaseSedans115.0 mph1:04.998S#6#184$1,417,000View Stats
LCC InnovationBaseMotorcycles110.0 mph1:04.999-#27#82$92,500View Stats
Bravado BansheeBaseSports118.5 mph1:05.131H#74#185$105,000View Stats
Dewbauchee Rapid GT ClassicBaseSports Classics119.8 mph1:05.148B#8#186$885,000View Stats
Vapid Retinue Mk IIBaseSports Classics120.3 mph1:05.165B#9#187$1,620,000View Stats
Vapid Dominator ASPBaseMuscle118.8 mph1:05.182A#7#188$1,775,000View Stats
Pegassi ToreroBaseSports Classics116.5 mph1:05.182B#10#189$998,000View Stats
Declasse Vigero ZXBaseMuscle125.0 mph1:05.208A#8#190$1,947,000View Stats
Karin S95BaseSports116.3 mph1:05.265H#75#191$1,995,000View Stats
Grotti CarbonizzareBaseSports120.0 mph1:05.282H#76#192$195,000View Stats
Nagasaki Blazer AquaBaseOff-Road99.0 mph1:05.283-#1#193$1,755,600View Stats
Declasse Vigero ZX ConvertibleBaseMuscle125.0 mph1:05.299A#9#194$2,295,000View Stats
Shitzu VaderBaseMotorcycles107.8 mph1:05.299-#28#83$9,000View Stats
Albany AlphaBaseSports118.5 mph1:05.315H#77#195$150,000View Stats
Coil VolticBaseSuper106.3 mph1:05.315J#59#196$150,000View Stats
BF Weevil CustomBaseMuscle137.5 mph1:05.365A#10#197$980,000View Stats
Bravado Apocalypse SasquatchBaseOff-Road116.5 mph1:05.366-#2#198$1,530,875View Stats
Bravado Future Shock SasquatchBaseOff-Road116.5 mph1:05.366-#2#198$1,530,875View Stats
Bravado Nightmare SasquatchBaseOff-Road116.5 mph1:05.366-#2#198$1,530,875View Stats
Invetero CoquetteBaseSports120.0 mph1:05.416H#78#201$138,000View Stats
Ramp BuggyBaseOff-Road113.3 mph1:05.448-#3#202$3,192,000View Stats
Dinka VindicatorBaseMotorcycles121.3 mph1:05.466-#29#84$630,000View Stats
Vapid Firebolt ASPBaseOff-Road113.5 mph1:05.515C#8#204$1,894,500View Stats
Declasse YosemiteBaseMuscle115.0 mph1:05.532A#12#205$485,000View Stats
Lampadati NovakBaseSUVs123.0 mph1:05.683A#8#206$608,000View Stats
Cheval TaipanBaseSuper126.3 mph1:05.699J#60#207$1,980,000View Stats
Annis RemusBaseSports115.5 mph1:05.699I#79#208$1,370,000View Stats
Benefactor Stirling GTBaseSports Classics113.0 mph1:05.715C#11#209$975,000View Stats
Dinka Jester ClassicBaseSports119.8 mph1:05.749I#80#211$790,000View Stats
Lampadati Tropos RallyeBaseSports119.5 mph1:05.766I#81#212$816,000View Stats
Vapid Apocalypse ImperatorBaseMuscle135.0 mph1:05.916-#3#213$2,284,940View Stats
Vapid Future Shock ImperatorBaseMuscle135.0 mph1:05.916-#3#213$2,284,940View Stats
Vapid Nightmare ImperatorBaseMuscle135.0 mph1:05.916-#3#213$2,284,940View Stats
Vapid RatelBaseOff-Road113.0 mph1:05.984C#9#214$1,873,000View Stats
Pfister AstronBaseSUVs119.5 mph1:05.999A#10#215$1,580,000View Stats
Dinka RT3000BaseSports119.3 mph1:06.033I#82#216$1,715,000View Stats
Pegassi Infernus ClassicBaseSports Classics118.8 mph1:06.049C#12#217$915,000View Stats
Ocelot LynxBaseSports121.5 mph1:06.082I#83#218$1,735,000View Stats
Bravado Buffalo EVXBaseMuscle119.0 mph1:06.132A#13#219$2,140,000View Stats
Maibatsu Manchez Scout CBaseMotorcycles137.8 mph1:06.133-#4#85-View Stats
Toundra PanthereBaseSports122.5 mph1:06.133I#84#220$2,170,000View Stats
Pfister Comet SafariBaseSports119.0 mph1:06.149I#85#221$710,000View Stats
Karin KurumaBaseSports113.0 mph1:06.150J#86#222$126,350View Stats
Ocelot SwingerBaseSports Classics117.0 mph1:06.183C#13#223$909,000View Stats
Maibatsu MonstroCitiBaseOff-Road109.8 mph1:06.183C#10#224$1,485,000View Stats
Bravado Hotring HellfireBaseSports124.3 mph1:06.266J#87#225$1,810,000View Stats
Declasse Hotring SabreBaseSports122.5 mph1:06.300J#88#226$830,000View Stats
Vapid Dominator GTTBaseMuscle115.0 mph1:06.306B#14#227$1,220,000View Stats
Nagasaki StryderBaseMotorcycles101.5 mph1:06.334-#30#86$670,000View Stats
Western Rampant RocketBaseMotorcycles106.0 mph1:06.367-#31#87$925,000View Stats
Declasse Impaler SZ CruiserBaseEmergency118.3 mph1:06.383-#6#228$4,720,000View Stats
Vapid CliqueBaseMuscle116.3 mph1:06.399B#15#230$909,000View Stats
Obey OmnisBaseSports113.3 mph1:06.399J#89#229$701,000View Stats
Pegassi EsskeyBaseMotorcycles112.8 mph1:06.399-#32#88$264,000View Stats
Western SovereignBaseMotorcycles106.3 mph1:06.400-#33#89$120,000View Stats
Vapid GB200BaseSports114.3 mph1:06.443J#90#231$940,000View Stats
Maibatsu ManchezBaseMotorcycles113.5 mph1:06.465-#34#90$67,000View Stats
Karin Hotring EveronBaseSports125.8 mph1:06.487J#91#232$1,790,000View Stats
Imponte DeluxoBaseSports Classics127.3 mph1:06.500-#2#233$5,750,000View Stats
Ubermacht ZionBaseCoupes118.0 mph1:06.512B#5#234$60,000View Stats
Ubermacht Zion CabrioBaseCoupes118.0 mph1:06.528B#6#235$65,000View Stats
Lampadati ViserisBaseSports Classics124.0 mph1:06.533C#14#236$875,000View Stats
Vapid Desert RaidBaseOff-Road106.8 mph1:06.549D#11#237$695,000View Stats
Vapid Trophy TruckBaseOff-Road106.8 mph1:06.561D#12#238$550,000View Stats
Ubermacht Rebla GTSBaseSUVs123.0 mph1:06.565A#11#239$1,175,000View Stats
Pfister Astron CustomBaseSUVs119.0 mph1:06.567A#12#240$1,720,000View Stats
BF ClubBaseCompacts112.5 mph1:06.600S#2#241$1,280,000View Stats
Declasse Drift YosemiteBaseMuscle107.5 mph1:06.600B#16#242$1,308,000View Stats
Shitzu PCJ 600BaseMotorcycles106.8 mph1:06.734-#35#91$9,000View Stats
Declasse Sabre Turbo CustomBaseMuscle121.3 mph1:06.750B#17#243-View Stats
HVY NightsharkBaseOff-Road105.3 mph1:06.750D#13#244$1,245,000View Stats
Vapid Pisswasser DominatorBaseMuscle125.0 mph1:06.767B#18#245$315,000View Stats
Lampadati FelonBaseCoupes114.8 mph1:06.788B#7#246$90,000View Stats
Bravado Sprunk BuffaloBaseSports115.0 mph1:06.800J#92#247$535,000View Stats
Imponte Ruiner ZZ-8BaseMuscle116.3 mph1:06.817B#19#248$1,320,000View Stats
Annis ZR350BaseSports116.8 mph1:06.967J#93#249$1,615,000View Stats
Maibatsu Manchez ScoutBaseMotorcycles139.8 mph1:06.968-#36#92$225,000View Stats
Benefactor VorschlaghammerBaseSedans122.8 mph1:07.000A#7#250$1,790,000View Stats
Invetero Coquette D1BaseSports Classics123.8 mph1:07.050D#15#251$1,500,000View Stats
Declasse Impaler SZBaseMuscle117.0 mph1:07.101B#20#252$1,280,000View Stats
Annis SavestraBaseSports Classics118.0 mph1:07.167D#16#253$990,000View Stats
LCC HexerBaseMotorcycles104.8 mph1:07.167-#37#93$15,000View Stats
LCC AvarusBaseMotorcycles107.5 mph1:07.168-#38#94$116,000View Stats
Karin Asterope GZBaseSedans113.3 mph1:07.234A#8#254$459,000View Stats
Dinka ThrustBaseMotorcycles118.3 mph1:07.267-#39#95$75,000View Stats
Declasse Impaler LX CruiserBaseEmergency117.0 mph1:07.351-#7#255$4,800,000View Stats
Ocelot StrombergBaseSports Classics112.8 mph1:07.351-#3#256$2,500,000View Stats
Weeny Apocalypse IssiBaseCompacts124.3 mph1:07.368-#1#257$1,089,000View Stats
Weeny Future Shock IssiBaseCompacts124.3 mph1:07.368-#1#257$1,089,000View Stats
Weeny Nightmare IssiBaseCompacts124.3 mph1:07.368-#1#257$1,089,000View Stats
Annis Euros X32BaseCoupes113.0 mph1:07.400C#8#258$1,499,000View Stats
Bravado GreenwoodBaseMuscle119.5 mph1:07.434C#21#259$1,465,000View Stats
Vapid BulletBaseSuper119.8 mph1:07.450K#61#260$155,000View Stats
Declasse Drift TampaBaseSports114.8 mph1:07.467K#94#262$995,000View Stats
Dewbauchee Rapid GT (Cabrio)BaseSports120.5 mph1:07.468K#95#263$140,000View Stats
Dewbauchee Rapid GTBaseSports120.5 mph1:07.475K#96#264$132,000View Stats
Annis HardyBaseSedans128.3 mph1:07.498A#9#265$1,380,000View Stats
Ubermacht Zion ClassicBaseSports Classics112.8 mph1:07.501D#17#266$812,000View Stats
Dewbauchee ExemplarBaseCoupes117.5 mph1:07.552C#9#267$205,000View Stats
Bravado Buffalo SBaseSports113.0 mph1:07.601K#97#268$96,000View Stats
Ocelot JackalBaseCoupes114.5 mph1:07.632C#10#269$60,000View Stats
Hijak KhamelionBaseSports102.0 mph1:07.668K#98#270$100,000View Stats
Karin Kuruma (Armored)BaseSports109.8 mph1:07.701K#99#271$698,250View Stats
Nagasaki BlazerBaseOff-Road99.3 mph1:07.734E#14#272$8,000View Stats
Lampadati Furore GTBaseSports120.8 mph1:07.735K#100#273$448,000View Stats
Nagasaki Hot Rod BlazerBaseOff-Road99.3 mph1:07.744E#15#274$69,000View Stats
Hijak RustonBaseSports116.5 mph1:07.784K#101#275$430,000View Stats
Western DaemonBaseMotorcycles107.0 mph1:07.834-#40#96-View Stats
BF BiftaBaseOff-Road107.8 mph1:07.885E#16#276$75,000View Stats
Schyster FusiladeBaseSports117.0 mph1:07.902K#102#277$36,000View Stats
Declasse ImpalerBaseMuscle115.8 mph1:07.902C#23#279$331,835View Stats
Western AnnihilatorBaseHelicopters115.0 mph1:07.902-#19#97$1,825,000View Stats
Vapid RetinueBaseSports Classics116.0 mph1:07.935D#18#279$615,000View Stats
Vapid Dominator GTXBaseMuscle108.5 mph1:07.951C#24#280$725,000View Stats
Declasse Impaler LXBaseMuscle115.5 mph1:07.969C#25#281$1,465,000View Stats
Enus JubileeBaseSUVs116.3 mph1:08.101B#13#282$1,650,000View Stats
Vapid DominatorBaseMuscle120.8 mph1:08.118C#26#283$35,000View Stats
Gallivanter Baller STBaseSUVs112.0 mph1:08.118B#14#284$890,000View Stats
Bravado BuffaloBaseSports112.8 mph1:08.135K#103#285$35,000View Stats
Western Zombie ChopperBaseMotorcycles113.8 mph1:08.201-#41#98$122,000View Stats
Western Zombie BobberBaseMotorcycles113.8 mph1:08.311-#42#99$99,000View Stats
Karin VivaniteBaseSUVs105.5 mph1:08.452B#15#286$1,605,000View Stats
Declasse Apocalypse BrutusBaseOff-Road120.3 mph1:08.601-#4#287$2,666,650View Stats
Declasse Future Shock BrutusBaseOff-Road120.3 mph1:08.601-#4#287$2,666,650View Stats
Declasse Nightmare BrutusBaseOff-Road120.3 mph1:08.601-#4#287$2,666,650View Stats
Imponte DukesBaseMuscle112.8 mph1:08.619D#27#288$62,000View Stats
Vapid BladeBaseMuscle110.5 mph1:08.634D#28#289$160,000View Stats
Western Daemon CustomBaseMotorcycles106.5 mph1:08.635-#43#100$145,000View Stats
Benefactor SchafterBaseSedans111.5 mph1:08.669B#10#290$65,000View Stats
Benefactor Glendale CustomBaseSedans111.3 mph1:08.685B#11#291$520,000View Stats
Dinka SugoiBaseSports118.0 mph1:08.786L#104#292$1,224,000View Stats
Benefactor Schafter LWBBaseSports109.3 mph1:08.869L#105#293$208,000View Stats
Nagasaki ChimeraBaseMotorcycles103.0 mph1:08.935-#44#101$210,000View Stats
Truffade Z-TypeBaseSports Classics127.0 mph1:08.936E#19#294$950,000View Stats
Lampadati PigalleBaseSports Classics121.8 mph1:08.969E#20#295$400,000View Stats
Obey I-WagenBaseSUVs94.0 mph1:08.985C#16#296$1,720,000View Stats
BF Dune BuggyBaseOff-Road101.0 mph1:09.002F#17#297$20,000View Stats
Bravado Gauntlet HellfireBaseMuscle125.0 mph1:09.019C#29#298$745,000View Stats
Karin WoodlanderBaseSUVs112.5 mph1:09.035C#17#299$1,611,000View Stats
Benefactor Schafter LWB (Armored)BaseSedans108.0 mph1:09.035B#12#300$438,000View Stats
Vapid Caracara PursuitBaseEmergency104.8 mph1:09.070-#8#301$5,335,000View Stats
Ubermacht Sentinel XSBaseCoupes116.0 mph1:09.119D#11#302$60,000View Stats
Invetero Coquette BlackFinBaseMuscle115.0 mph1:09.135D#30#303$695,000View Stats
Imponte RuinerBaseMuscle119.5 mph1:09.136D#31#304$10,000View Stats
Dinka EnduroBaseMotorcycles107.3 mph1:09.137-#45#102$48,000View Stats
Weeny Issi RallyBaseSUVs117.0 mph1:09.219C#18#305$1,835,000View Stats
Enus DeityBaseSedans115.0 mph1:09.236B#13#306$1,845,000View Stats
Coil BrawlerBaseOff-Road119.3 mph1:09.252F#18#307$715,000View Stats
Vapid ContenderBaseSUVs109.0 mph1:09.270C#19#308$250,000View Stats
Declasse Walton L35BaseOff-Road105.3 mph1:09.337F#19#309$1,670,000View Stats
Declasse Sabre TurboBaseMuscle111.3 mph1:09.452D#32#310$15,000View Stats
Albany Cavalcade XLBaseSUVs104.3 mph1:09.470C#20#311$1,665,000View Stats
Imponte Duke O'DeathBaseMuscle114.5 mph1:09.519D#33#312$665,000View Stats
Police BikeBaseEmergency100.5 mph1:09.553-#9#313-View Stats
Vapid Caracara 4x4BaseOff-Road103.3 mph1:09.570F#20#314$875,000View Stats
Declasse Yosemite 1500BaseOff-Road106.3 mph1:09.586F#21#315$1,205,000View Stats
Karin EveronBaseOff-Road107.0 mph1:09.637F#22#316$1,475,000View Stats
Bravado Greenwood CruiserBaseEmergency121.5 mph1:09.669-#10#317$4,910,000View Stats
SkyliftBaseHelicopters115.0 mph1:09.736-#20#103-View Stats
Willard Outreach FactionBaseEmergency114.8 mph1:09.753-#11#318$4,150,000View Stats
Declasse VamosBaseMuscle110.8 mph1:09.753E#34#319$596,000View Stats
Vapid Stanier LE CruiserBaseEmergency114.3 mph1:09.820-#12#320$4,690,000View Stats
Karin 190zBaseSports Classics110.0 mph1:09.887F#21#321$900,000View Stats
Lampadati CascoBaseSports Classics121.5 mph1:09.903F#22#322$904,400View Stats
Declasse TulipBaseMuscle112.3 mph1:09.904E#35#323$718,000View Stats
Declasse Weaponized TampaBaseMuscle112.0 mph1:09.986-#4#324$2,108,050View Stats
Karin Futo GTXBaseSports112.5 mph1:10.020M#106#325$1,590,000View Stats
Nagasaki OutlawBaseOff-Road91.0 mph1:10.036G#23#326$1,268,000View Stats
Imponte Arbiter GTBaseMuscle111.5 mph1:10.054E#36#327$1,580,000View Stats
Enus Cognoscenti CabrioBaseCoupes112.8 mph1:10.120E#12#328$185,000View Stats
Imponte Beater DukesBaseMuscle112.5 mph1:10.153E#37#330$378,000View Stats
Annis HellionBaseOff-Road104.0 mph1:10.220G#24#331$835,000View Stats
Bravado Dorado CruiserBaseEmergency112.8 mph1:10.269-#13#332$5,005,000View Stats
Ocelot F620BaseCoupes118.3 mph1:10.270E#13#333$80,000View Stats
Albany HermesBaseMuscle115.5 mph1:10.270E#38#334$535,000View Stats
Declasse Tampa GTBaseMuscle130.5 mph1:10.303E#39#335$1,311,000View Stats
BF Ramp BuggyBaseOff-Road106.0 mph1:10.317-#5#336-View Stats
Vapid Slamvan CustomBaseMuscle118.0 mph1:10.354E#40#337-View Stats
Grotti Brioso R/ABaseCompacts103.8 mph1:10.436A#3#339$155,000View Stats
Bravado Gauntlet Classic CustomBaseMuscle125.3 mph1:10.537E#41#340$815,000View Stats
Pegassi MonroeBaseSports Classics123.3 mph1:10.587G#23#341$490,000View Stats
Lampadati Felon GTBaseCoupes111.0 mph1:10.654F#14#342$95,000View Stats
Invetero Coquette ClassicBaseSports Classics118.3 mph1:10.671G#24#343$665,000View Stats
Benefactor SchwartzerBaseSports117.0 mph1:10.671M#107#345$80,000View Stats
Declasse TampaBaseMuscle105.8 mph1:10.688F#42#345$375,000View Stats
Declasse Tahoma CoupeBaseMuscle112.3 mph1:10.738F#43#346$1,500,000View Stats
Declasse Burger Shot StallionBaseMuscle113.8 mph1:10.754F#44#347$277,000View Stats
Karin BoorBaseOff-Road112.5 mph1:10.754G#25#349$1,280,000View Stats
Ubermacht SentinelBaseCoupes112.5 mph1:10.787F#15#349$95,000View Stats
Bravado Redwood GauntletBaseMuscle116.3 mph1:10.854F#45#350$230,000View Stats
Obey TailgaterBaseSedans105.0 mph1:10.872C#14#351$55,000View Stats
Benefactor XLS (Armored)BaseSUVs108.5 mph1:10.888D#21#352$522,000View Stats
Schyster DeviantBaseMuscle108.0 mph1:10.904G#46#353$512,000View Stats
Declasse Tulip M-100BaseMuscle116.8 mph1:10.938F#47#354$1,658,000View Stats
Ubermacht OracleBaseCoupes115.5 mph1:11.021F#16#355-View Stats
Declasse StallionBaseMuscle110.8 mph1:11.055G#48#356$71,000View Stats
Imponte PhoenixBaseMuscle114.0 mph1:11.104G#49#357-View Stats
Declasse Yosemite RancherBaseOff-Road105.0 mph1:11.138H#26#358$700,000View Stats
Bravado DoradoBaseSUVs111.0 mph1:11.188D#22#359$1,375,000View Stats
Declasse Walton L35 StockBaseOff-Road108.3 mph1:11.204H#27#360$1,303,700View Stats
Dinka Veto ModernBaseSports83.5 mph1:11.204-#3#361$995,000View Stats
BF RaptorBaseSports103.8 mph1:11.271N#108#362$648,000View Stats
Karin FutoBaseSports119.5 mph1:11.322N#109#363$9,000View Stats
Imponte Ruiner 2000BaseMuscle119.0 mph1:11.371-#5#364$3,750,000View Stats
Vapid HustlerBaseMuscle120.5 mph1:11.454G#50#365$625,000View Stats
Declasse MambaBaseSports Classics118.0 mph1:11.454H#25#366$995,000View Stats
Vapid RiataBaseOff-Road104.3 mph1:11.488H#28#367$380,000View Stats
Bravado GauntletBaseMuscle114.0 mph1:11.505G#51#368$32,000View Stats
Dewbauchee JB 700WBaseSports Classics120.0 mph1:11.554-#4#369$1,470,000View Stats
Dewbauchee JB 700BaseSports Classics120.0 mph1:11.571H#26#370$350,000View Stats
Vapid Unmarked CruiserBaseEmergency111.0 mph1:11.572-#15#371-View Stats
Bravado Gauntlet ClassicBaseMuscle109.5 mph1:11.589G#52#372$615,000View Stats
Cheval FugitiveBaseSedans108.3 mph1:11.655D#15#373$24,000View Stats
Canis FreecrawlerBaseOff-Road99.0 mph1:11.695H#29#374$597,000View Stats
Albany Primo CustomBaseSedans103.5 mph1:11.705D#16#375-View Stats
Ubermacht Oracle XSBaseCoupes114.8 mph1:11.822G#17#376$82,000View Stats
Maibatsu PenumbraBaseSports105.3 mph1:11.823N#110#377$24,000View Stats
Benefactor StreiterBaseSports110.5 mph1:11.872N#111#378$500,000View Stats
HVY Insurgent Pick-Up CustomBaseOff-Road98.5 mph1:11.906-#6#379-View Stats
Enus WindsorBaseCoupes118.5 mph1:11.938G#18#380$845,000View Stats
Albany PrimoBaseSedans103.5 mph1:11.972D#17#381$9,000View Stats
Albany BuccaneerBaseMuscle113.3 mph1:12.055H#53#382$29,000View Stats
Albany Buccaneer CustomBaseMuscle113.3 mph1:12.105H#54#383-View Stats
Lampadati Michelli GTBaseSports Classics106.0 mph1:12.138I#27#384$1,225,000View Stats
Grotti GT500BaseSports Classics111.5 mph1:12.139I#28#385$785,000View Stats
Declasse VigeroBaseMuscle112.5 mph1:12.155H#55#386$21,000View Stats
Enus Huntley SBaseSUVs109.0 mph1:12.239E#23#387$195,000View Stats
Karin IntruderBaseSedans107.3 mph1:12.256D#18#388$16,000View Stats
Grotti Stinger GTBaseSports Classics112.3 mph1:12.289I#29#389$875,000View Stats
Vulcar WarrenerBaseSedans104.0 mph1:12.306E#19#390$120,000View Stats
Dinka Kanjo SJBaseCoupes107.3 mph1:12.322G#19#391$1,370,000View Stats
BarrageBaseMilitary108.5 mph1:12.339-#1#392$2,121,350View Stats
RUNE CheburekBaseSports Classics108.5 mph1:12.339I#30#392$145,000View Stats
Enus Windsor DropBaseCoupes118.3 mph1:12.359G#20#394$900,000View Stats
Albany WashingtonBaseSedans108.5 mph1:12.439E#20#395$15,000View Stats
Imponte NightshadeBaseMuscle105.3 mph1:12.489H#56#396$585,000View Stats
HVY InsurgentBaseOff-Road98.8 mph1:12.607I#30#397$897,750View Stats
Grotti StingerBaseSports Classics112.3 mph1:12.622I#31#398$850,000View Stats
Vapid CaracaraBaseOff-Road100.8 mph1:12.703-#7#399$1,775,000View Stats
Vulcar Warrener HKRBaseSedans107.0 mph1:12.823E#21#400$1,260,000View Stats
Karin AsteropeBaseSedans105.3 mph1:12.873E#22#401$26,000View Stats
Canis BodhiBaseOff-Road99.5 mph1:12.956I#31#402$25,000View Stats
Enus Cognoscenti 55BaseSedans113.3 mph1:12.957E#23#403$154,000View Stats
Vapid AleutianBaseSUVs113.3 mph1:12.989E#24#404$1,835,000View Stats
Willard Faction Custom 1BaseMuscle111.3 mph1:12.989H#57#405-View Stats
Vapid Peyote GasserBaseMuscle118.5 mph1:12.991H#58#406$805,000View Stats
BF InjectionBaseOff-Road107.0 mph1:13.156I#32#408$16,000View Stats
Vapid EllieBaseMuscle105.5 mph1:13.172H#59#409$565,000View Stats
Enus Cognoscenti 55 (Armored)BaseSedans113.0 mph1:13.223E#24#410$396,000View Stats
Gallivanter Baller LEBaseSUVs109.3 mph1:13.374E#25#412$149,000View Stats
HVY MenacerBaseOff-Road94.0 mph1:13.440-#8#413$1,775,000View Stats
Dinka Blista KanjoBaseCompacts108.8 mph1:13.473B#4#414$580,000View Stats
Vapid StanierBaseSedans109.0 mph1:13.540E#25#415$10,000View Stats
Gallivanter Baller (New)BaseSUVs108.5 mph1:13.712F#26#416-View Stats
BF Dune FAVBaseOff-Road99.5 mph1:13.740-#9#417$1,130,500View Stats
Albany LurcherBaseMuscle114.5 mph1:13.757H#60#418$650,000View Stats
Gallivanter Baller LE (Armored)BaseSUVs108.5 mph1:13.796F#27#419$374,000View Stats
Gallivanter Baller LE LWBBaseSUVs108.5 mph1:13.874F#28#420$247,000View Stats
Western BaggerBaseMotorcycles98.0 mph1:13.907-#46#104$16,000View Stats
Declasse RhapsodyBaseCompacts103.0 mph1:14.056C#5#421$140,000View Stats
Benefactor PantoBaseCompacts100.8 mph1:14.057C#6#422$85,000View Stats
Benefactor GlendaleBaseSedans107.5 mph1:14.074F#26#423$200,000View Stats
Declasse Granger 3600LXBaseSUVs97.5 mph1:14.124F#29#424$2,000,000View Stats
Zirconium StratumBaseSedans105.5 mph1:14.191F#27#425$10,000View Stats
Dinka Blista CompactBaseSports103.8 mph1:14.208O#112#426$42,000View Stats
Dinka Go Go Monkey BlistaBaseSports103.8 mph1:14.217O#113#427FreeView Stats
Gallivanter Baller LE LWB (Armored)BaseSUVs108.0 mph1:14.292F#30#428$513,000View Stats
Karin Technical AquaBaseOff-Road93.3 mph1:14.341-#10#429$1,489,600View Stats
Karin Technical CustomBaseOff-Road101.5 mph1:14.390-#11#430$142,500View Stats
Declasse PremierBaseSedans104.8 mph1:14.391F#28#431$10,000View Stats
Benefactor XLSBaseSUVs106.0 mph1:14.541G#31#432$253,000View Stats
Dinka PostludeBaseCoupes103.0 mph1:14.541H#21#433$1,310,000View Stats
Vapid RadiusBaseSUVs105.5 mph1:14.601G#32#434$32,000View Stats
Willard Faction Custom DonkBaseMuscle98.3 mph1:14.608I#61#435-View Stats
Western CargobobBaseHelicopters99.5 mph1:14.640-#21#105$1,790,000View Stats
Western Cargobob JetsamBaseHelicopters99.5 mph1:14.640-#21#105$1,995,000View Stats
Cheval SurgeBaseSedans94.0 mph1:14.643G#29#436$38,000View Stats
Declasse AseaBaseSedans106.5 mph1:14.708G#30#437$12,000View Stats
Vapid Apocalypse SlamvanBaseMuscle120.0 mph1:14.758-#6#438$1,321,875View Stats
Vapid Future Shock SlamvanBaseMuscle120.0 mph1:14.758-#6#438$1,321,875View Stats
Vapid Nightmare SlamvanBaseMuscle120.0 mph1:14.758-#6#438$1,321,875View Stats
Dundreary Virgo Classic CustomBaseMuscle104.5 mph1:14.808I#62#439-View Stats
Enus Super DiamondBaseSedans113.8 mph1:14.908G#31#440$250,000View Stats
Willard FactionBaseMuscle111.3 mph1:14.908I#63#442$36,000View Stats
Albany Roosevelt ValorBaseSports Classics98.8 mph1:14.925J#32#442$982,000View Stats
Dinka Veto ClassicBaseSports79.0 mph1:14.925-#4#443$895,000View Stats
MTL DuneBaseService91.5 mph1:14.992-#2#444$1,300,000View Stats
Obey RocotoBaseSUVs107.8 mph1:15.041G#33#445$85,000View Stats
Cheval PicadorBaseMuscle102.3 mph1:15.059I#64#446$9,000View Stats
Benefactor Dubsta 6x6BaseOff-Road104.3 mph1:15.125J#33#447$249,000View Stats
Benefactor SerranoBaseSUVs101.5 mph1:15.375H#34#448$60,000View Stats
Benefactor DubstaBaseSUVs102.0 mph1:15.409H#35#449-View Stats
Canis MesaBaseOff-Road101.0 mph1:15.409J#34#450$87,000View Stats
Declasse Moonbeam CustomBaseMuscle102.3 mph1:15.458I#65#451-View Stats
Albany BrighamBaseMuscle105.5 mph1:15.559J#66#453$1,499,000View Stats
Vapid Peyote CustomBaseSports Classics111.0 mph1:15.610J#33#454$620,000View Stats
BF WeevilBaseCompacts102.5 mph1:15.642D#7#455$870,000View Stats
Declasse GrangerBaseSUVs102.8 mph1:15.643H#36#456$35,000View Stats
Albany Manana CustomBaseMuscle109.0 mph1:15.726J#67#457$925,000View Stats
Mammoth SquaddieBaseSUVs102.5 mph1:15.743H#37#458$1,130,000View Stats
TaxiBaseService102.5 mph1:15.776-#3#459-View Stats
Enus CognoscentiBaseSedans110.5 mph1:15.959H#32#460$254,000View Stats
Dinka BlistaBaseCompacts105.0 mph1:15.993D#8#461-View Stats
Mammoth Patriot Mil-SpecBaseOff-Road96.0 mph1:16.043K#35#462$1,710,000View Stats
Enus Cognoscenti (Armored)BaseSedans110.3 mph1:16.057H#33#463$558,000View Stats
Karin Rusty RebelBaseOff-Road101.0 mph1:16.076K#36#464$3,000View Stats
Albany Fränken StangeBaseSports Classics107.0 mph1:16.126K#34#465$550,000View Stats
Karin RebelBaseOff-Road101.0 mph1:16.142K#37#466$22,000View Stats
MTL WastelanderBaseService91.0 mph1:16.143-#4#467$658,350View Stats
Vulcar Nebula TurboBaseSports Classics102.5 mph1:16.260K#35#468$797,000View Stats
Declasse Park RangerBaseEmergency102.0 mph1:16.293-#19#469-View Stats
Canis Seminole FrontierBaseSUVs100.0 mph1:16.326I#38#470$678,000View Stats
Sheriff CruiserBaseEmergency102.3 mph1:16.343-#20#471-View Stats
Grotti Brioso 300 WidebodyBaseCompacts96.0 mph1:16.442E#9#472$585,000View Stats
Bollokan PrairieBaseCompacts104.0 mph1:16.476E#10#473$25,000View Stats
Albany RooseveltBaseSports Classics98.8 mph1:16.497K#36#474$750,000View Stats
Dundreary Landstalker XLBaseSUVs101.0 mph1:16.526I#39#475$1,220,000View Stats
Weeny IssiBaseCompacts105.5 mph1:16.542E#11#476$18,000View Stats
Benefactor Dubsta 2BaseSUVs102.0 mph1:16.543I#40#477-View Stats
Cheval MarshallBaseOff-Road81.3 mph1:16.559L#38#478$500,000View Stats
Vapid MonsterBaseOff-Road81.3 mph1:16.594L#39#479$742,014View Stats
Declasse Gang BurritoBaseVans105.5 mph1:16.710S#1#480$86,450View Stats
Willard EudoraBaseMuscle109.0 mph1:16.776J#68#481$1,250,000View Stats
HVY Insurgent Pick-UpBaseOff-Road92.5 mph1:16.993-#12#482$1,795,500View Stats
Maxwell AsboBaseCompacts96.5 mph1:17.010E#12#483$408,000View Stats
Bravado Rumpo CustomBaseVans98.8 mph1:17.026S#2#484$130,000View Stats
Vapid GuardianBaseIndustrial100.8 mph1:17.044-#1#485$375,000View Stats
Vapid Sandking SWBBaseOff-Road99.8 mph1:17.060L#40#486$38,000View Stats
Dundreary LandstalkerBaseSUVs100.0 mph1:17.160J#41#487$58,000View Stats
Fathom FQ 2BaseSUVs104.0 mph1:17.411J#42#488$50,000View Stats
Western WolfsbaneBaseMotorcycles101.5 mph1:17.444-#47#106$95,000View Stats
Declasse Tornado Rat RodBaseSports Classics99.5 mph1:17.510L#37#489$378,000View Stats
Albany VirgoBaseMuscle97.5 mph1:17.624K#69#490$195,000View Stats
Western Rat BikeBaseMotorcycles123.5 mph1:17.632-#48#107$48,000View Stats
Emperor HabaneroBaseSUVs105.5 mph1:17.711J#43#491$42,000View Stats
Classique BroadwayBaseMuscle100.0 mph1:17.978K#70#492$925,000View Stats
Vapid Sandking XLBaseOff-Road99.8 mph1:17.994M#41#493$45,000View Stats
Karin TechnicalBaseOff-Road94.5 mph1:18.028-#13#494$1,263,500View Stats
Vapid ChinoBaseMuscle94.0 mph1:18.028L#71#495$225,000View Stats
Bravado GresleyBaseSUVs101.3 mph1:18.094J#44#496$29,000View Stats
Declasse LifeguardBaseEmergency103.0 mph1:18.238-#21#497-View Stats
Vapid HotknifeBaseMuscle109.5 mph1:18.362L#72#498$90,000View Stats
Canis KalahariBaseOff-Road90.8 mph1:18.363M#42#499$40,000View Stats
Vulcar FagaloaBaseSports Classics87.0 mph1:18.395L#38#500$335,000View Stats
JoBuilt Hauler CustomBaseCommercial101.3 mph1:18.434-#1#501$1,400,000View Stats
Vapid Lost SlamvanBaseMuscle109.5 mph1:18.462L#73#502-View Stats
Vapid Chino CustomBaseMuscle95.3 mph1:18.545L#74#503-View Stats
Weeny Issi ClassicBaseCompacts94.8 mph1:18.695F#13#504$360,000View Stats
Benefactor Apocalypse BruiserBaseOff-Road109.0 mph1:18.762-#14#506$1,609,000View Stats
Benefactor Future Shock BruiserBaseOff-Road109.0 mph1:18.762-#14#506$1,609,000View Stats
Benefactor Nightmare BruiserBaseOff-Road109.0 mph1:18.762-#14#506$1,609,000View Stats
Gallivanter Baller (Old)BaseSUVs100.0 mph1:18.863K#45#507-View Stats
Karin BeeJay XLBaseSUVs97.5 mph1:19.012K#46#509$27,000View Stats
Albany Cavalcade (New)BaseSUVs98.5 mph1:19.109K#47#510$70,000View Stats
Albany Cavalcade (Old)BaseSUVs98.5 mph1:19.125K#48#511$60,000View Stats
Vapid Minivan CustomBaseVans95.3 mph1:19.263A#4#512-View Stats
JoBuilt Phantom CustomBaseCommercial103.5 mph1:19.283-#2#513$1,225,000View Stats
Vapid Clique WagonBaseMuscle91.0 mph1:19.296M#75#514$1,205,000View Stats
Sheriff SUVBaseEmergency96.5 mph1:19.345-#22#515-View Stats
Benefactor Turreted LimoBaseSedans90.0 mph1:19.429-#1#517$1,650,000View Stats
Bravado BisonBaseVans99.5 mph1:19.529A#5#518$30,000View Stats
Declasse MoonbeamBaseMuscle102.3 mph1:19.729M#76#520$32,500View Stats
Police RoadcruiserBaseEmergency101.5 mph1:19.867-#24#521-View Stats
JoBuilt Phantom WedgeBaseCommercial98.3 mph1:20.080-#3#522$2,553,600View Stats
Canis SeminoleBaseSUVs97.8 mph1:20.263L#50#523$30,000View Stats
Dundreary Virgo ClassicBaseMuscle97.0 mph1:20.264N#77#524$165,000View Stats
Dinka VerusBaseOff-Road84.0 mph1:20.597N#43#525$192,000View Stats
Declasse Voodoo CustomBaseMuscle101.0 mph1:20.748N#78#526$420,000View Stats
Brute Armored BoxvilleBaseVans87.5 mph1:20.764-#1#527$1,300,000View Stats
Bravado Youga Classic 4x4BaseVans95.5 mph1:20.796B#6#528$1,288,000View Stats
Declasse Rancher XLBaseOff-Road96.8 mph1:21.198N#44#529$9,000View Stats
Brute Pony (Smoke on the Water)BaseVans98.0 mph1:21.231B#7#530-View Stats
Enus StaffordBaseSedans93.5 mph1:21.348I#34#531$1,272,000View Stats
Declasse Bugstars BurritoBaseVans98.3 mph1:21.848C#8#532-View Stats
Mammoth PatriotBaseSUVs98.8 mph1:21.866M#51#533$50,000View Stats
Declasse VoodooBaseMuscle99.5 mph1:21.882N#79#534$5,500View Stats
Vapid SpeedoBaseVans101.3 mph1:21.965C#9#535-View Stats
Karin DilettanteBaseCompacts88.5 mph1:22.165G#14#536$25,000View Stats
Nagasaki Blazer LifeguardBaseOff-Road83.8 mph1:22.288N#45#537$62,000View Stats
Albany MananaBaseSports Classics98.5 mph1:22.432M#39#538-View Stats
Bravado YougaBaseVans96.5 mph1:22.516D#10#539$16,000View Stats
Shitzu LongfinBaseBoats122.0 mph1:22.550-#1#108$2,125,000View Stats
Vapid MinivanBaseVans95.3 mph1:22.632D#11#540$30,000View Stats
Bravado Rat-TruckBaseMuscle106.0 mph1:22.649O#80#541$37,500View Stats
Bravado RumpoBaseVans99.5 mph1:22.766D#12#542$13,000View Stats
Bravado ParadiseBaseVans99.5 mph1:22.799D#13#543$25,000View Stats
Burrito (Bail Enforcement)BaseEmergency102.0 mph1:22.876-#25#544-View Stats
Space DockerBaseOff-Road87.8 mph1:23.139-#15#545FreeView Stats
Declasse Tornado CustomBaseSports Classics98.5 mph1:23.166N#40#546-View Stats
Weeny DynastyBaseSports Classics93.3 mph1:23.301N#41#547$450,000View Stats
AmbulanceBaseEmergency98.0 mph1:23.483-#26#548-View Stats
Vapid PeyoteBaseSports Classics98.5 mph1:23.517N#42#549-View Stats
Vulcar IngotBaseSedans90.3 mph1:23.667J#35#550$9,000View Stats
Bravado Rat-LoaderBaseMuscle103.0 mph1:23.734O#81#552$6,000View Stats
Vapid SlamvanBaseMuscle109.0 mph1:23.800O#82#553$49,500View Stats
Grotti Brioso 300BaseCompacts86.0 mph1:23.950G#15#554$610,000View Stats
Mammoth Patriot StretchBaseSUVs96.8 mph1:24.050M#52#555$611,800View Stats
HVY Apocalypse ScarabBaseMilitary74.3 mph1:24.150-#2#556$3,076,290View Stats
HVY Future Shock ScarabBaseMilitary74.3 mph1:24.150-#2#556$3,076,290View Stats
HVY Nightmare ScarabBaseMilitary74.3 mph1:24.150-#2#556$3,076,290View Stats
Chariot Romero HearseBaseSedans89.8 mph1:24.318J#36#557$45,000View Stats
Vapid Bobcat XLBaseVans95.5 mph1:24.551E#14#558$23,000View Stats
Pegassi Pizza BoyBaseMotorcycles81.5 mph1:24.667-#49#109$195,000View Stats
Canis CrusaderBaseMilitary90.5 mph1:24.735-#3#559$225,000View Stats
Declasse TornadoBaseSports Classics98.5 mph1:25.084O#43#560$30,000View Stats
Albany EmperorBaseSedans90.8 mph1:25.251K#37#564-View Stats
Pegassi Faggio SportBaseMotorcycles76.8 mph1:25.318-#50#110$47,500View Stats
Police RancherBaseEmergency89.5 mph1:25.337-#27#566-View Stats
MTL Apocalypse CerberusBaseCommercial106.3 mph1:25.602-#4#567$3,870,300View Stats
MTL Future Shock CerberusBaseCommercial106.3 mph1:25.602-#4#567$3,870,300View Stats
MTL Nightmare CerberusBaseCommercial106.3 mph1:25.602-#4#567$3,870,300View Stats
MTL Brickade 6x6BaseService90.5 mph1:25.783-#5#568$1,450,000View Stats
Dundreary StretchBaseSedans95.0 mph1:26.268-#2#569$30,000View Stats
Vapid Clown VanBaseVans94.3 mph1:26.353F#15#570FreeView Stats
Brute PonyBaseVans91.3 mph1:26.603F#16#571-View Stats
Pegassi Faggio ModBaseMotorcycles74.3 mph1:27.154-#51#111$55,000View Stats
Pegassi FaggioBaseMotorcycles103.3 mph1:27.421-#52#112$5,000View Stats
MTL BrickadeBaseService83.8 mph1:27.570-#6#572$555,000View Stats
Declasse BurritoBaseVans90.8 mph1:28.154-#2#573-View Stats
Police TransporterBaseEmergency91.0 mph1:28.472-#28#575-View Stats
Vapid Youga CustomBaseVans97.3 mph1:28.638G#17#576FreeView Stats
Benefactor TerrorbyteBaseCommercial87.5 mph1:28.841-#5#578$1,375,000View Stats
HVY APCBaseMilitary63.0 mph1:28.872-#4#579$3,092,250View Stats
Bravado Youga ClassicBaseVans91.0 mph1:29.289G#18#581$195,000View Stats
MTL Fire TruckBaseEmergency96.0 mph1:29.340-#29#582-View Stats
RCVBaseEmergency96.8 mph1:30.007-#30#584$3,125,500View Stats
Bravado DuneloaderBaseOff-Road79.5 mph1:30.874O#46#585-View Stats
Dundreary ReginaBaseSedans86.3 mph1:31.274L#39#586$8,000View Stats
Vapid WinkyBaseOff-Road72.0 mph1:32.158O#47#587$1,100,000View Stats
Vapid BensonBaseCommercial91.8 mph1:32.309-#6#588-View Stats
Vapid Benson (Cluckin' Bell)BaseCommercial91.8 mph1:32.309-#6#588$685,000View Stats
Pegassi SpeederBaseBoats68.3 mph1:32.761-#2#113$325,000View Stats
MTL Pounder CustomBaseCommercial95.3 mph1:32.826-#7#589$320,530View Stats
Shitzu JetmaxBaseBoats70.0 mph1:33.025-#3#114$299,000View Stats
JoBuilt PhantomBaseCommercial83.3 mph1:34.595-#8#590-View Stats
Nagasaki DinghyBaseBoats71.5 mph1:34.794-#5#116$166,250View Stats
Nagasaki Weaponized DinghyBaseBoats71.5 mph1:35.004-#6#117$1,850,000View Stats
MTL FlatbedBaseIndustrial77.0 mph1:36.096-#2#592-View Stats
MTL Custom FlatbedBaseIndustrial77.0 mph1:36.129-#3#593-View Stats
HVY Barracks SemiBaseMilitary83.3 mph1:37.163-#5#594-View Stats
Brute Bobcat Security StockadeBaseCommercial85.8 mph1:37.814-#9#595$2,440,500View Stats
Brute StockadeBaseCommercial85.8 mph1:37.814-#9#595-View Stats
RUNE ZhabaBaseOff-Road62.3 mph1:37.998O#48#596$2,400,000View Stats
MTL PackerBaseCommercial85.8 mph1:38.031-#10#597-View Stats
Police RiotBaseEmergency86.3 mph1:39.132-#31#599-View Stats
Nagasaki UltralightBasePlanes73.3 mph1:39.168-#35#118$665,000View Stats
Mammoth ThrusterBaseMilitary127.0 mph1:39.550-#6#601$2,500,000View Stats
RC BanditoBaseOff-Road59.5 mph1:39.616-#16#602$1,590,000View Stats
Shitzu SqualoBaseBoats65.8 mph1:39.933-#7#119$196,621View Stats
Maibatsu Mule CustomBaseCommercial76.5 mph1:40.017-#11#603$95,760View Stats
Zirconium Journey IIBaseVans79.3 mph1:40.184H#19#605$790,000View Stats
RM-10 BombushkaBasePlanes84.5 mph1:40.403-#36#120$4,750,000View Stats
Shitzu TropicBaseBoats63.3 mph1:40.966-#8#121$22,000View Stats
BarracksBaseMilitary84.3 mph1:41.101-#7#606$450,000View Stats
HVY BiffBaseCommercial85.3 mph1:41.835-#12#608-View Stats
Xero BlimpBasePlanes107.0 mph1:41.934-#37#122-View Stats
Speedophile SeasharkBaseBoats67.0 mph1:42.134-#9#123$16,899View Stats
HVY MixerBaseIndustrial85.3 mph1:42.669-#4#609-View Stats
JoBuilt RubbleBaseIndustrial78.0 mph1:42.953-#5#610-View Stats
Atomic BlimpBasePlanes105.0 mph1:43.270-#38#124-View Stats
BlimpBasePlanes105.0 mph1:43.342-#39#125$1,190,350View Stats
Maibatsu Mule (Heist)BaseCommercial72.5 mph1:43.770-#13#612$43,225View Stats
Brute CamperBaseVans72.5 mph1:43.887I#20#613-View Stats
JoBuilt HaulerBaseCommercial74.5 mph1:44.188-#14#616-View Stats
Brute TipperBaseIndustrial71.0 mph1:44.237-#7#617-View Stats
Tour BusBaseService66.0 mph1:44.653-#7#618-View Stats
Rental Shuttle BusBaseService66.0 mph1:44.688-#8#619$30,000View Stats
BF Surfer CustomBaseVans69.8 mph1:45.438J#21#621$590,000View Stats
Zirconium JourneyBaseVans74.3 mph1:45.839J#22#622$15,000View Stats
Brute Taco VanBaseVans71.0 mph1:46.607K#23#623-View Stats
TipperBaseIndustrial74.0 mph1:46.787-#8#624-View Stats
MTL PounderBaseCommercial86.8 mph1:46.940-#15#625-View Stats
BoxvilleBaseVans71.5 mph1:47.324K#24#626-View Stats
Brute Boxville (LSDS)BaseVans71.5 mph1:47.324K#24#626$475,000View Stats
Brute Boxville (LSDWP)BaseVans71.5 mph1:47.324K#24#626-View Stats
Brute Boxville (Post OP)BaseVans71.5 mph1:47.324K#24#626$59,850View Stats
ChernobogBaseMilitary70.8 mph1:48.491-#8#627$1,500,000View Stats
BF SurferBaseVans67.3 mph1:48.676K#25#628$11,000View Stats
Maibatsu MuleBaseCommercial71.0 mph1:50.294-#16#630$27,000View Stats
Bravado Half-trackBaseMilitary58.0 mph1:51.061-#9#631$2,254,350View Stats
VetirBaseMilitary63.0 mph1:51.178-#10#632$1,630,000View Stats
Airport BusBaseService66.0 mph1:52.511-#10#633$550,000View Stats
BusBaseService66.0 mph1:52.564-#11#634$500,000View Stats
Lampadati ToroBaseBoats50.3 mph1:54.847-#10#126$1,750,000View Stats
DashoundBaseService71.8 mph1:56.199-#12#637$525,000View Stats
Police Prison BusBaseEmergency65.3 mph1:56.617-#32#638$731,500View Stats
Police PredatorBaseBoats48.5 mph2:03.214-#11#127-View Stats
Shitzu SuntrapBaseBoats51.0 mph2:04.557-#12#128$25,160View Stats
Festival BusBaseService59.5 mph2:06.477-#13#639$1,842,050View Stats
Endurex Race BikeBaseCycles47.0 mph2:08.393-#1#129$10,000View Stats
Tri-Cycles Race BikeBaseCycles47.0 mph2:08.393-#1#129$10,000View Stats
Whippet Race BikeBaseCycles47.0 mph2:08.393-#1#129$10,000View Stats
Coil InductorBaseCycles45.5 mph2:11.365-#2#130$50,000View Stats
Coil Junk Energy InductorBaseCycles45.5 mph2:11.365-#2#130$50,000View Stats
FixterBaseCycles44.3 mph2:14.434-#3#131-View Stats
TM-02 KhanjaliBaseMilitary42.3 mph2:19.189-#11#641$3,850,350View Stats
Rhino TankBaseMilitary40.8 mph2:23.910-#12#642$1,500,000View Stats
ScorcherBaseCycles38.0 mph2:32.618-#4#132$2,000View Stats
BMXBaseCycles35.3 mph2:44.864-#5#133$800View Stats
CruiserBaseCycles33.5 mph2:55.173-#6#134$800View Stats
Kurtz 31 Patrol BoatBaseBoats36.8 mph2:57.336-#13#135$2,955,000View Stats
HVY DumpBaseIndustrial32.3 mph3:03.133-#9#645$1,000,000View Stats
HVY CutterBaseIndustrial31.3 mph3:08.049-#11#647-View Stats
Invade and Persuade TankBaseMilitary26.8 mph3:38.443-#13#650$2,275,000View Stats
Dinka MarquisBaseBoats26.3 mph4:02.232-#14#136$413,990View Stats
RUNE KosatkaBaseBoats41.5 mph4:07.805-#15#137-View Stats
KrakenBaseBoats20.8 mph4:20.349-#16#138$1,325,000View Stats
SubmersibleBaseBoats19.8 mph4:53.135-#17#139-View Stats
Kraken AvisaBaseBoats16.8 mph6:02.543-#18#140$1,545,000View Stats
Buckingham TugBaseBoats18.5 mph6:37.952-#19#141$1,250,000View Stats
HVY DozerBaseIndustrial11.0 mph8:38.251-#12#652-View Stats